sensor_id;sensor_type;location;lat;lon;timestamp;pressure;altitude;pressure_sealevel;temperature;humidity
21096;BME280;10706;49.036;12.112;2022-12-29T00:00:10;97578.84;;;1.70;94.46
21096;BME280;10706;49.036;12.112;2022-12-29T00:02:36;97577.84;;;1.71;94.51
21096;BME280;10706;49.036;12.112;2022-12-29T00:05:02;97569.56;;;1.74;92.71
21096;BME280;10706;49.036;12.112;2022-12-29T00:07:27;97581.56;;;1.77;92.77
21096;BME280;10706;49.036;12.112;2022-12-29T00:09:53;97576.94;;;1.79;93.87
21096;BME280;10706;49.036;12.112;2022-12-29T00:12:19;97574.56;;;1.84;93.38
21096;BME280;10706;49.036;12.112;2022-12-29T00:14:45;97571.91;;;1.99;92.30
21096;BME280;10706;49.036;12.112;2022-12-29T00:17:29;97567.03;;;1.96;92.29
21096;BME280;10706;49.036;12.112;2022-12-29T00:19:55;97565.22;;;1.81;93.04
21096;BME280;10706;49.036;12.112;2022-12-29T00:22:39;97565.22;;;1.81;93.60
21096;BME280;10706;49.036;12.112;2022-12-29T00:25:23;97574.47;;;1.92;92.30
21096;BME280;10706;49.036;12.112;2022-12-29T00:28:10;97553.47;;;1.99;91.36
21096;BME280;10706;49.036;12.112;2022-12-29T00:30:59;97557.78;;;1.85;91.42
21096;BME280;10706;49.036;12.112;2022-12-29T00:33:58;97562.22;;;1.84;92.98
21096;BME280;10706;49.036;12.112;2022-12-29T00:36:42;97539.41;;;1.91;91.69
21096;BME280;10706;49.036;12.112;2022-12-29T00:39:13;97543.53;;;1.79;92.08
21096;BME280;10706;49.036;12.112;2022-12-29T00:42:06;97545.53;;;1.77;92.33
21096;BME280;10706;49.036;12.112;2022-12-29T00:44:51;97552.06;;;1.81;92.39
21096;BME280;10706;49.036;12.112;2022-12-29T00:47:17;97547.78;;;1.80;93.13
21096;BME280;10706;49.036;12.112;2022-12-29T00:49:42;97557.88;;;1.77;92.71
21096;BME280;10706;49.036;12.112;2022-12-29T00:52:11;97551.78;;;1.76;91.42
21096;BME280;10706;49.036;12.112;2022-12-29T00:54:40;97555.44;;;1.75;91.87
21096;BME280;10706;49.036;12.112;2022-12-29T00:57:08;97557.44;;;1.73;91.88
21096;BME280;10706;49.036;12.112;2022-12-29T00:59:36;97555.16;;;1.70;93.14
21096;BME280;10706;49.036;12.112;2022-12-29T01:02:02;97549.53;;;1.73;92.22
21096;BME280;10706;49.036;12.112;2022-12-29T01:04:28;97547.25;;;1.70;92.68
21096;BME280;10706;49.036;12.112;2022-12-29T01:06:54;97544.00;;;1.68;92.50
21096;BME280;10706;49.036;12.112;2022-12-29T01:09:20;97547.63;;;1.67;92.29
21096;BME280;10706;49.036;12.112;2022-12-29T01:12:06;97553.09;;;1.65;93.24
21096;BME280;10706;49.036;12.112;2022-12-29T01:14:32;97547.63;;;1.67;92.95
21096;BME280;10706;49.036;12.112;2022-12-29T01:16:58;97538.09;;;1.66;92.70
21096;BME280;10706;49.036;12.112;2022-12-29T01:19:24;97545.72;;;1.61;93.48
21096;BME280;10706;49.036;12.112;2022-12-29T01:21:50;97553.25;;;1.64;93.17
21096;BME280;10706;49.036;12.112;2022-12-29T01:24:17;97540.28;;;1.62;92.10
21096;BME280;10706;49.036;12.112;2022-12-29T01:26:44;97545.19;;;1.65;92.09
21096;BME280;10706;49.036;12.112;2022-12-29T01:29:10;97541.91;;;1.63;92.30
21096;BME280;10706;49.036;12.112;2022-12-29T01:31:36;97540.72;;;1.66;92.40
21096;BME280;10706;49.036;12.112;2022-12-29T01:34:02;97538.47;;;1.63;91.86
21096;BME280;10706;49.036;12.112;2022-12-29T01:36:28;97527.66;;;1.72;92.91
21096;BME280;10706;49.036;12.112;2022-12-29T01:38:53;97534.47;;;1.67;91.70
21096;BME280;10706;49.036;12.112;2022-12-29T01:41:19;97529.59;;;1.64;91.80
21096;BME280;10706;49.036;12.112;2022-12-29T01:43:57;97532.84;;;1.66;91.42
21096;BME280;10706;49.036;12.112;2022-12-29T01:51:43;97526.22;;;1.70;92.23
21096;BME280;10706;49.036;12.112;2022-12-29T01:54:17;97524.03;;;1.59;91.49
21096;BME280;10706;49.036;12.112;2022-12-29T01:56:45;97522.22;;;1.59;91.38
21096;BME280;10706;49.036;12.112;2022-12-29T01:59:17;97531.75;;;1.60;90.84
21096;BME280;10706;49.036;12.112;2022-12-29T02:01:44;97522.03;;;1.61;91.57
21096;BME280;10706;49.036;12.112;2022-12-29T02:04:11;97526.69;;;1.59;91.34
21096;BME280;10706;49.036;12.112;2022-12-29T02:07:02;97523.47;;;1.63;92.26
21096;BME280;10706;49.036;12.112;2022-12-29T02:09:29;97508.53;;;1.64;92.15
21096;BME280;10706;49.036;12.112;2022-12-29T02:11:56;97518.03;;;1.65;91.03
21096;BME280;10706;49.036;12.112;2022-12-29T02:14:23;97504.78;;;1.73;91.56
21096;BME280;10706;49.036;12.112;2022-12-29T02:32:30;97490.94;;;1.49;92.18
21096;BME280;10706;49.036;12.112;2022-12-29T02:38:17;97499.84;;;1.48;91.32
21096;BME280;10706;49.036;12.112;2022-12-29T02:40:58;97501.28;;;1.51;91.84
21096;BME280;10706;49.036;12.112;2022-12-29T02:43:59;97503.81;;;1.44;91.43
21096;BME280;10706;49.036;12.112;2022-12-29T02:46:38;97519.53;;;1.52;91.36
21096;BME280;10706;49.036;12.112;2022-12-29T02:49:18;97503.34;;;1.55;91.51
21096;BME280;10706;49.036;12.112;2022-12-29T02:52:09;97495.63;;;1.69;90.92
21096;BME280;10706;49.036;12.112;2022-12-29T02:54:40;97513.78;;;1.64;90.92
21096;BME280;10706;49.036;12.112;2022-12-29T02:57:35;97492.09;;;1.62;90.68
21096;BME280;10706;49.036;12.112;2022-12-29T03:00:16;97485.34;;;1.74;91.48
21096;BME280;10706;49.036;12.112;2022-12-29T03:11:13;97501.78;;;1.76;90.54
21096;BME280;10706;49.036;12.112;2022-12-29T03:14:17;97484.59;;;1.80;90.69
21096;BME280;10706;49.036;12.112;2022-12-29T03:17:15;97475.09;;;1.79;90.18
21096;BME280;10706;49.036;12.112;2022-12-29T03:19:48;97469.66;;;1.81;91.18
21096;BME280;10706;49.036;12.112;2022-12-29T03:22:22;97461.75;;;1.81;91.44
21096;BME280;10706;49.036;12.112;2022-12-29T03:25:13;97464.94;;;1.76;90.42
21096;BME280;10706;49.036;12.112;2022-12-29T03:27:49;97474.81;;;1.74;90.01
21096;BME280;10706;49.036;12.112;2022-12-29T03:30:15;97457.03;;;1.76;90.62
21096;BME280;10706;49.036;12.112;2022-12-29T03:32:52;97449.53;;;1.73;90.59
21096;BME280;10706;49.036;12.112;2022-12-29T03:35:22;97474.06;;;1.80;89.67
21096;BME280;10706;49.036;12.112;2022-12-29T03:38:14;97466.44;;;1.85;90.28
21096;BME280;10706;49.036;12.112;2022-12-29T03:40:44;97449.75;;;1.78;90.89
21096;BME280;10706;49.036;12.112;2022-12-29T03:43:11;97463.31;;;1.75;90.86
21096;BME280;10706;49.036;12.112;2022-12-29T03:45:38;97444.75;;;1.83;91.09
21096;BME280;10706;49.036;12.112;2022-12-29T03:48:04;97441.69;;;1.80;89.23
21096;BME280;10706;49.036;12.112;2022-12-29T03:50:30;97447.06;;;1.71;90.81
21096;BME280;10706;49.036;12.112;2022-12-29T03:52:56;97443.25;;;1.74;91.41
21096;BME280;10706;49.036;12.112;2022-12-29T03:55:21;97445.69;;;1.75;91.58
21096;BME280;10706;49.036;12.112;2022-12-29T03:57:47;97444.44;;;1.71;89.76
21096;BME280;10706;49.036;12.112;2022-12-29T04:00:13;97449.75;;;1.78;90.77
21096;BME280;10706;49.036;12.112;2022-12-29T04:02:39;97452.59;;;1.77;91.33
21096;BME280;10706;49.036;12.112;2022-12-29T04:05:05;97460.50;;;1.77;90.76
21096;BME280;10706;49.036;12.112;2022-12-29T04:07:31;97458.69;;;1.77;90.51
21096;BME280;10706;49.036;12.112;2022-12-29T04:09:57;97460.38;;;1.85;89.49
21096;BME280;10706;49.036;12.112;2022-12-29T04:12:23;97454.22;;;1.78;89.97
21096;BME280;10706;49.036;12.112;2022-12-29T04:14:48;97442.44;;;1.73;90.20
21096;BME280;10706;49.036;12.112;2022-12-29T04:17:14;97448.78;;;1.79;90.98
21096;BME280;10706;49.036;12.112;2022-12-29T04:19:40;97452.22;;;1.80;89.41
21096;BME280;10706;49.036;12.112;2022-12-29T04:22:05;97442.50;;;1.80;89.29
21096;BME280;10706;49.036;12.112;2022-12-29T04:24:31;97446.63;;;1.89;89.86
21096;BME280;10706;49.036;12.112;2022-12-29T04:26:57;97444.28;;;1.94;89.25
21096;BME280;10706;49.036;12.112;2022-12-29T04:29:23;97447.09;;;1.93;89.79
21096;BME280;10706;49.036;12.112;2022-12-29T04:31:48;97441.38;;;1.89;88.62
21096;BME280;10706;49.036;12.112;2022-12-29T04:34:14;97444.28;;;1.94;88.39
21096;BME280;10706;49.036;12.112;2022-12-29T04:36:40;97452.53;;;1.91;88.13
21096;BME280;10706;49.036;12.112;2022-12-29T04:39:06;97455.06;;;2.00;88.88
21096;BME280;10706;49.036;12.112;2022-12-29T04:41:32;97452.06;;;2.03;88.61
21096;BME280;10706;49.036;12.112;2022-12-29T04:43:58;97450.69;;;2.07;88.21
21096;BME280;10706;49.036;12.112;2022-12-29T04:46:24;97451.13;;;2.10;88.57
21096;BME280;10706;49.036;12.112;2022-12-29T04:48:49;97457.13;;;2.04;88.87
21096;BME280;10706;49.036;12.112;2022-12-29T04:51:15;97456.50;;;2.02;87.89
21096;BME280;10706;49.036;12.112;2022-12-29T04:53:41;97457.97;;;2.05;88.04
21096;BME280;10706;49.036;12.112;2022-12-29T04:56:07;97455.56;;;2.10;89.21
21096;BME280;10706;49.036;12.112;2022-12-29T04:58:33;97461.84;;;2.09;87.52
21096;BME280;10706;49.036;12.112;2022-12-29T05:00:58;97469.03;;;2.00;89.40
21096;BME280;10706;49.036;12.112;2022-12-29T05:03:24;97472.28;;;2.02;89.20
21096;BME280;10706;49.036;12.112;2022-12-29T05:05:54;97468.66;;;2.03;89.68
21096;BME280;10706;49.036;12.112;2022-12-29T05:08:21;97464.22;;;2.04;90.58
21096;BME280;10706;49.036;12.112;2022-12-29T05:10:47;97473.06;;;1.96;89.55
21096;BME280;10706;49.036;12.112;2022-12-29T05:13:13;97465.84;;;2.05;89.12
21096;BME280;10706;49.036;12.112;2022-12-29T05:15:39;97462.66;;;2.09;88.45
21096;BME280;10706;49.036;12.112;2022-12-29T05:18:04;97467.88;;;2.03;90.27
21096;BME280;10706;49.036;12.112;2022-12-29T05:20:30;97454.63;;;1.96;89.19
21096;BME280;10706;49.036;12.112;2022-12-29T05:22:56;97450.41;;;2.02;90.35
21096;BME280;10706;49.036;12.112;2022-12-29T05:25:21;97452.44;;;2.00;91.60
21096;BME280;10706;49.036;12.112;2022-12-29T05:27:47;97451.63;;;1.99;91.03
21096;BME280;10706;49.036;12.112;2022-12-29T05:30:13;97444.34;;;2.01;91.10
21096;BME280;10706;49.036;12.112;2022-12-29T05:32:38;97448.78;;;2.01;91.43
21096;BME280;10706;49.036;12.112;2022-12-29T05:35:05;97456.44;;;1.96;91.23
21096;BME280;10706;49.036;12.112;2022-12-29T05:37:31;97448.38;;;1.97;91.73
21096;BME280;10706;49.036;12.112;2022-12-29T05:39:56;97442.09;;;1.98;90.94
21096;BME280;10706;49.036;12.112;2022-12-29T05:42:22;97446.28;;;1.92;91.61
21096;BME280;10706;49.036;12.112;2022-12-29T05:44:48;97444.16;;;2.03;92.19
21096;BME280;10706;49.036;12.112;2022-12-29T05:47:17;97435.75;;;1.92;92.61
21096;BME280;10706;49.036;12.112;2022-12-29T05:49:43;97445.91;;;1.96;92.36
21096;BME280;10706;49.036;12.112;2022-12-29T05:52:08;97446.72;;;1.96;92.41
21096;BME280;10706;49.036;12.112;2022-12-29T05:54:34;97447.66;;;1.88;92.44
21096;BME280;10706;49.036;12.112;2022-12-29T05:57:00;97453.69;;;1.82;92.34
21096;BME280;10706;49.036;12.112;2022-12-29T05:59:25;97465.47;;;1.86;92.15
21096;BME280;10706;49.036;12.112;2022-12-29T06:01:52;97433.78;;;1.80;91.40
21096;BME280;10706;49.036;12.112;2022-12-29T06:04:17;97431.59;;;1.83;91.44
21096;BME280;10706;49.036;12.112;2022-12-29T06:06:43;97436.59;;;1.78;92.51
21096;BME280;10706;49.036;12.112;2022-12-29T06:09:10;97441.41;;;1.74;91.49
21096;BME280;10706;49.036;12.112;2022-12-29T06:11:36;97443.56;;;1.86;90.98
21096;BME280;10706;49.036;12.112;2022-12-29T06:14:02;97457.13;;;1.83;90.43
21096;BME280;10706;49.036;12.112;2022-12-29T06:16:28;97455.16;;;1.91;91.55
21096;BME280;10706;49.036;12.112;2022-12-29T06:18:54;97453.31;;;2.07;90.05
21096;BME280;10706;49.036;12.112;2022-12-29T06:21:20;97452.78;;;1.97;90.86
21096;BME280;10706;49.036;12.112;2022-12-29T06:23:45;97452.06;;;2.03;90.03
21096;BME280;10706;49.036;12.112;2022-12-29T06:26:11;97447.22;;;2.06;91.38
21096;BME280;10706;49.036;12.112;2022-12-29T06:28:37;97452.91;;;2.10;90.57
21096;BME280;10706;49.036;12.112;2022-12-29T06:31:02;97444.66;;;2.13;91.20
21096;BME280;10706;49.036;12.112;2022-12-29T06:33:29;97450.19;;;2.18;89.81
21096;BME280;10706;49.036;12.112;2022-12-29T06:35:55;97451.31;;;2.09;89.46
21096;BME280;10706;49.036;12.112;2022-12-29T06:38:21;97455.94;;;2.07;90.75
21096;BME280;10706;49.036;12.112;2022-12-29T06:40:46;97467.47;;;2.06;90.00
21096;BME280;10706;49.036;12.112;2022-12-29T06:43:12;97459.13;;;2.02;90.79
21096;BME280;10706;49.036;12.112;2022-12-29T06:45:39;97466.34;;;1.93;90.85
21096;BME280;10706;49.036;12.112;2022-12-29T06:48:06;97473.34;;;1.86;91.10
21096;BME280;10706;49.036;12.112;2022-12-29T06:50:32;97485.75;;;1.92;90.07
21096;BME280;10706;49.036;12.112;2022-12-29T06:52:57;97474.25;;;1.93;90.01
21096;BME280;10706;49.036;12.112;2022-12-29T06:55:23;97477.41;;;1.89;89.58
21096;BME280;10706;49.036;12.112;2022-12-29T06:57:49;97486.13;;;1.89;89.51
21096;BME280;10706;49.036;12.112;2022-12-29T07:00:15;97497.69;;;1.88;89.30
21096;BME280;10706;49.036;12.112;2022-12-29T07:02:41;97494.47;;;1.93;89.55
21096;BME280;10706;49.036;12.112;2022-12-29T07:05:07;97480.06;;;1.89;90.82
21096;BME280;10706;49.036;12.112;2022-12-29T07:07:34;97483.28;;;2.06;89.37
21096;BME280;10706;49.036;12.112;2022-12-29T07:10:00;97489.03;;;1.94;89.29
21096;BME280;10706;49.036;12.112;2022-12-29T07:12:26;97476.88;;;1.93;89.57
21096;BME280;10706;49.036;12.112;2022-12-29T07:14:51;97475.69;;;1.96;89.02
21096;BME280;10706;49.036;12.112;2022-12-29T07:17:17;97479.88;;;1.90;90.36
21096;BME280;10706;49.036;12.112;2022-12-29T07:19:43;97485.31;;;1.89;88.72
21096;BME280;10706;49.036;12.112;2022-12-29T07:22:10;97463.94;;;1.99;89.01
21096;BME280;10706;49.036;12.112;2022-12-29T07:24:35;97475.69;;;1.96;89.07
21096;BME280;10706;49.036;12.112;2022-12-29T07:27:01;97491.03;;;1.92;88.90
21096;BME280;10706;49.036;12.112;2022-12-29T07:29:27;97450.78;;;1.99;88.10
21096;BME280;10706;49.036;12.112;2022-12-29T07:31:52;97473.81;;;1.90;88.36
21096;BME280;10706;49.036;12.112;2022-12-29T07:34:18;97500.38;;;1.95;89.89
21096;BME280;10706;49.036;12.112;2022-12-29T07:36:44;97479.88;;;1.90;90.60
21096;BME280;10706;49.036;12.112;2022-12-29T07:39:09;97471.72;;;1.85;89.30
21096;BME280;10706;49.036;12.112;2022-12-29T07:41:35;97472.53;;;1.86;89.14
21096;BME280;10706;49.036;12.112;2022-12-29T07:44:01;97469.59;;;1.96;90.48
21096;BME280;10706;49.036;12.112;2022-12-29T07:46:27;97477.50;;;1.96;90.08
21096;BME280;10706;49.036;12.112;2022-12-29T07:48:52;97462.69;;;1.94;89.55
21096;BME280;10706;49.036;12.112;2022-12-29T07:51:18;97465.16;;;1.96;90.15
21096;BME280;10706;49.036;12.112;2022-12-29T07:53:44;97447.66;;;2.10;89.72
21096;BME280;10706;49.036;12.112;2022-12-29T07:56:09;97446.84;;;2.09;88.18
21096;BME280;10706;49.036;12.112;2022-12-29T07:58:35;97477.81;;;2.07;88.36
21096;BME280;10706;49.036;12.112;2022-12-29T08:01:01;97464.78;;;2.21;89.09
21096;BME280;10706;49.036;12.112;2022-12-29T08:03:27;97480.53;;;2.14;88.45
21096;BME280;10706;49.036;12.112;2022-12-29T08:05:52;97480.09;;;2.10;87.90
21096;BME280;10706;49.036;12.112;2022-12-29T08:08:19;97468.00;;;2.16;89.33
21096;BME280;10706;49.036;12.112;2022-12-29T08:10:45;97480.53;;;2.14;88.05
21096;BME280;10706;49.036;12.112;2022-12-29T08:13:11;97465.28;;;2.31;87.82
21096;BME280;10706;49.036;12.112;2022-12-29T08:15:38;97500.97;;;2.33;86.42
21096;BME280;10706;49.036;12.112;2022-12-29T08:18:03;97472.25;;;2.39;88.49
21096;BME280;10706;49.036;12.112;2022-12-29T08:20:29;97476.38;;;2.48;86.84
21096;BME280;10706;49.036;12.112;2022-12-29T08:22:55;97493.19;;;2.47;85.52
21096;BME280;10706;49.036;12.112;2022-12-29T08:25:21;97493.44;;;2.52;87.53
21096;BME280;10706;49.036;12.112;2022-12-29T08:27:46;97471.31;;;2.75;85.71
21096;BME280;10706;49.036;12.112;2022-12-29T08:30:13;97484.63;;;2.66;86.26
21096;BME280;10706;49.036;12.112;2022-12-29T08:32:38;97504.34;;;2.70;86.11
21096;BME280;10706;49.036;12.112;2022-12-29T08:35:05;97513.88;;;2.71;85.77
21096;BME280;10706;49.036;12.112;2022-12-29T08:37:33;97502.97;;;2.81;86.68
21096;BME280;10706;49.036;12.112;2022-12-29T08:39:59;97507.41;;;3.02;84.99
21096;BME280;10706;49.036;12.112;2022-12-29T08:42:30;97498.63;;;2.95;85.71
21096;BME280;10706;49.036;12.112;2022-12-29T08:45:00;97501.91;;;2.97;84.78
21096;BME280;10706;49.036;12.112;2022-12-29T08:47:26;97499.50;;;3.02;84.65
21096;BME280;10706;49.036;12.112;2022-12-29T08:49:52;97501.78;;;3.12;84.91
21096;BME280;10706;49.036;12.112;2022-12-29T08:52:18;97500.56;;;3.15;85.20
21096;BME280;10706;49.036;12.112;2022-12-29T08:54:44;97503.22;;;3.15;85.01
21096;BME280;10706;49.036;12.112;2022-12-29T08:57:10;97501.88;;;3.25;85.48
21096;BME280;10706;49.036;12.112;2022-12-29T08:59:35;97499.47;;;3.30;83.78
21096;BME280;10706;49.036;12.112;2022-12-29T09:02:01;97498.84;;;3.28;84.53
21096;BME280;10706;49.036;12.112;2022-12-29T09:04:27;97493.97;;;3.32;84.34
21096;BME280;10706;49.036;12.112;2022-12-29T09:06:53;97496.03;;;3.37;83.74
21096;BME280;10706;49.036;12.112;2022-12-29T09:09:20;97493.22;;;3.38;83.53
21096;BME280;10706;49.036;12.112;2022-12-29T09:11:46;97496.72;;;3.52;83.57
21096;BME280;10706;49.036;12.112;2022-12-29T09:14:13;97496.91;;;3.50;83.64
21096;BME280;10706;49.036;12.112;2022-12-29T09:16:39;97497.38;;;3.61;84.31
21096;BME280;10706;49.036;12.112;2022-12-29T09:19:23;97501.63;;;3.62;83.46
21096;BME280;10706;49.036;12.112;2022-12-29T09:21:49;97509.19;;;3.72;82.99
21096;BME280;10706;49.036;12.112;2022-12-29T09:24:15;97509.22;;;3.78;82.38
21096;BME280;10706;49.036;12.112;2022-12-29T09:26:41;97495.78;;;3.73;83.51
21096;BME280;10706;49.036;12.112;2022-12-29T09:29:06;97503.56;;;3.81;83.62
21096;BME280;10706;49.036;12.112;2022-12-29T09:31:32;97498.66;;;3.78;83.63
21096;BME280;10706;49.036;12.112;2022-12-29T09:33:58;97488.94;;;3.92;82.83
21096;BME280;10706;49.036;12.112;2022-12-29T09:36:23;97502.56;;;3.96;81.36
21096;BME280;10706;49.036;12.112;2022-12-29T09:38:49;97484.94;;;4.09;81.93
21096;BME280;10706;49.036;12.112;2022-12-29T09:41:26;97486.97;;;4.14;80.99
21096;BME280;10706;49.036;12.112;2022-12-29T09:56:31;97477.66;;;4.38;81.87
21096;BME280;10706;49.036;12.112;2022-12-29T09:59:17;97474.81;;;4.26;81.48
21096;BME280;10706;49.036;12.112;2022-12-29T10:02:06;97468.94;;;4.38;81.72
21096;BME280;10706;49.036;12.112;2022-12-29T10:04:40;97465.88;;;4.47;81.87
21096;BME280;10706;49.036;12.112;2022-12-29T10:23:04;97453.97;;;5.23;79.21
21096;BME280;10706;49.036;12.112;2022-12-29T10:25:38;97456.00;;;5.35;79.86
21096;BME280;10706;49.036;12.112;2022-12-29T10:28:34;97440.16;;;5.28;78.66
21096;BME280;10706;49.036;12.112;2022-12-29T10:31:02;97430.94;;;5.37;79.53
21096;BME280;10706;49.036;12.112;2022-12-29T10:33:39;97435.44;;;5.37;79.24
21096;BME280;10706;49.036;12.112;2022-12-29T10:42:09;97408.66;;;5.52;79.58
21096;BME280;10706;49.036;12.112;2022-12-29T10:44:39;97410.31;;;5.46;79.24
21096;BME280;10706;49.036;12.112;2022-12-29T10:47:15;97420.31;;;5.51;79.79
21096;BME280;10706;49.036;12.112;2022-12-29T10:49:43;97410.53;;;5.51;79.38
21096;BME280;10706;49.036;12.112;2022-12-29T10:52:12;97391.50;;;5.68;80.29
21096;BME280;10706;49.036;12.112;2022-12-29T10:55:04;97397.72;;;5.48;79.38
21096;BME280;10706;49.036;12.112;2022-12-29T10:57:45;97405.34;;;5.63;78.82
21096;BME280;10706;49.036;12.112;2022-12-29T11:00:18;97403.25;;;5.78;78.40
21096;BME280;10706;49.036;12.112;2022-12-29T11:08:16;97410.56;;;6.21;76.53
21096;BME280;10706;49.036;12.112;2022-12-29T11:10:44;97420.88;;;6.30;75.34
21096;BME280;10706;49.036;12.112;2022-12-29T11:13:17;97402.13;;;6.31;76.42
21096;BME280;10706;49.036;12.112;2022-12-29T11:15:49;97408.81;;;6.34;76.16
21096;BME280;10706;49.036;12.112;2022-12-29T11:18:23;97415.06;;;6.46;75.61
21096;BME280;10706;49.036;12.112;2022-12-29T11:20:56;97410.59;;;6.40;76.10
21096;BME280;10706;49.036;12.112;2022-12-29T11:23:42;97411.47;;;6.34;76.51
21096;BME280;10706;49.036;12.112;2022-12-29T11:28:38;97400.28;;;6.57;75.35
21096;BME280;10706;49.036;12.112;2022-12-29T11:31:07;97408.31;;;6.43;76.17
21096;BME280;10706;49.036;12.112;2022-12-29T11:33:38;97401.72;;;6.53;76.36
21096;BME280;10706;49.036;12.112;2022-12-29T11:36:11;97401.84;;;6.83;75.36
21096;BME280;10706;49.036;12.112;2022-12-29T11:38:51;97393.09;;;6.82;74.96
21096;BME280;10706;49.036;12.112;2022-12-29T11:41:28;97397.03;;;6.98;73.86
21096;BME280;10706;49.036;12.112;2022-12-29T11:44:01;97396.72;;;6.88;73.84
21096;BME280;10706;49.036;12.112;2022-12-29T11:46:32;97388.81;;;7.00;74.47
21096;BME280;10706;49.036;12.112;2022-12-29T11:49:00;97393.47;;;7.05;74.41
21096;BME280;10706;49.036;12.112;2022-12-29T11:51:47;97391.69;;;7.17;74.12
21096;BME280;10706;49.036;12.112;2022-12-29T11:54:36;97387.41;;;7.53;74.12
21096;BME280;10706;49.036;12.112;2022-12-29T11:57:15;97378.22;;;7.67;72.67
21096;BME280;10706;49.036;12.112;2022-12-29T11:59:51;97377.59;;;7.84;72.00
21096;BME280;10706;49.036;12.112;2022-12-29T12:04:49;97371.75;;;8.05;70.41
21096;BME280;10706;49.036;12.112;2022-12-29T12:07:43;97368.91;;;8.18;70.82
21096;BME280;10706;49.036;12.112;2022-12-29T12:10:21;97361.84;;;8.24;71.20
21096;BME280;10706;49.036;12.112;2022-12-29T12:13:27;97359.41;;;8.23;71.32
21096;BME280;10706;49.036;12.112;2022-12-29T12:16:16;97362.38;;;8.14;70.35
21096;BME280;10706;49.036;12.112;2022-12-29T12:19:04;97371.06;;;8.10;71.75
21096;BME280;10706;49.036;12.112;2022-12-29T12:21:43;97372.91;;;8.09;71.60
21096;BME280;10706;49.036;12.112;2022-12-29T12:24:39;97356.03;;;8.15;70.75
21096;BME280;10706;49.036;12.112;2022-12-29T12:28:00;97352.44;;;8.10;71.78
21096;BME280;10706;49.036;12.112;2022-12-29T12:30:22;97349.31;;;8.01;72.07
21096;BME280;10706;49.036;12.112;2022-12-29T12:33:03;97349.78;;;7.98;71.58
21096;BME280;10706;49.036;12.112;2022-12-29T12:41:45;97342.38;;;8.12;71.34
21096;BME280;10706;49.036;12.112;2022-12-29T12:50:55;97337.44;;;8.15;72.33
21096;BME280;10706;49.036;12.112;2022-12-29T12:53:37;97332.25;;;8.21;72.06
21096;BME280;10706;49.036;12.112;2022-12-29T12:56:39;97331.88;;;8.29;72.51
21096;BME280;10706;49.036;12.112;2022-12-29T13:16:05;97313.50;;;8.74;71.72
21096;BME280;10706;49.036;12.112;2022-12-29T13:18:52;97313.09;;;8.54;71.96
21096;BME280;10706;49.036;12.112;2022-12-29T13:28:00;97317.50;;;9.01;72.33
21096;BME280;10706;49.036;12.112;2022-12-29T13:30:40;97322.13;;;9.91;67.88
21096;BME280;10706;49.036;12.112;2022-12-29T13:39:32;97332.03;;;10.42;66.50
21096;BME280;10706;49.036;12.112;2022-12-29T13:41:56;97328.59;;;10.12;67.08
21096;BME280;10706;49.036;12.112;2022-12-29T13:44:29;97330.03;;;9.86;68.10
21096;BME280;10706;49.036;12.112;2022-12-29T13:47:01;97323.75;;;9.92;67.25
21096;BME280;10706;49.036;12.112;2022-12-29T13:49:30;97330.31;;;9.56;68.91
21096;BME280;10706;49.036;12.112;2022-12-29T13:52:02;97334.16;;;9.20;70.16
21096;BME280;10706;49.036;12.112;2022-12-29T14:03:44;97325.50;;;9.01;72.66
21096;BME280;10706;49.036;12.112;2022-12-29T14:06:45;97332.47;;;8.90;71.92
21096;BME280;10706;49.036;12.112;2022-12-29T14:09:51;97333.88;;;8.69;73.94
21096;BME280;10706;49.036;12.112;2022-12-29T14:12:41;97327.97;;;8.67;73.29
21096;BME280;10706;49.036;12.112;2022-12-29T14:17:37;97331.44;;;8.55;72.85
21096;BME280;10706;49.036;12.112;2022-12-29T14:20:15;97330.06;;;8.41;74.66
21096;BME280;10706;49.036;12.112;2022-12-29T14:23:34;97324.75;;;8.41;75.79
21096;BME280;10706;49.036;12.112;2022-12-29T14:28:40;97334.53;;;8.41;75.11
21096;BME280;10706;49.036;12.112;2022-12-29T14:36:52;97346.56;;;8.31;76.14
21096;BME280;10706;49.036;12.112;2022-12-29T14:39:42;97352.59;;;8.27;76.21
21096;BME280;10706;49.036;12.112;2022-12-29T14:42:15;97351.88;;;8.20;76.90
21096;BME280;10706;49.036;12.112;2022-12-29T14:44:56;97360.56;;;8.15;77.47
21096;BME280;10706;49.036;12.112;2022-12-29T14:50:06;97361.69;;;8.07;76.77
21096;BME280;10706;49.036;12.112;2022-12-29T14:53:02;97357.84;;;8.03;78.11
21096;BME280;10706;49.036;12.112;2022-12-29T14:58:30;97365.03;;;8.03;78.61
21096;BME280;10706;49.036;12.112;2022-12-29T15:00:59;97360.88;;;8.07;78.71
21096;BME280;10706;49.036;12.112;2022-12-29T15:03:45;97363.69;;;8.24;78.67
21096;BME280;10706;49.036;12.112;2022-12-29T15:06:13;97364.59;;;8.29;76.66
21096;BME280;10706;49.036;12.112;2022-12-29T15:08:54;97356.41;;;8.31;76.61
21096;BME280;10706;49.036;12.112;2022-12-29T15:11:47;97350.16;;;8.25;76.94
21096;BME280;10706;49.036;12.112;2022-12-29T15:14:34;97349.91;;;8.15;77.88
21096;BME280;10706;49.036;12.112;2022-12-29T15:17:01;97357.53;;;8.11;77.42
21096;BME280;10706;49.036;12.112;2022-12-29T15:19:33;97359.97;;;8.13;78.47
21096;BME280;10706;49.036;12.112;2022-12-29T15:22:00;97365.03;;;8.14;78.42
21096;BME280;10706;49.036;12.112;2022-12-29T15:24:26;97365.75;;;8.22;77.99
21096;BME280;10706;49.036;12.112;2022-12-29T15:26:53;97368.56;;;8.27;76.77
21096;BME280;10706;49.036;12.112;2022-12-29T15:29:36;97369.13;;;8.29;76.78
21096;BME280;10706;49.036;12.112;2022-12-29T15:32:25;97369.13;;;8.29;77.07
21096;BME280;10706;49.036;12.112;2022-12-29T15:34:57;97369.47;;;8.21;78.26
21096;BME280;10706;49.036;12.112;2022-12-29T15:37:27;97368.31;;;8.16;77.29
21096;BME280;10706;49.036;12.112;2022-12-29T15:39:55;97363.78;;;8.05;77.96
21096;BME280;10706;49.036;12.112;2022-12-29T15:43:12;97361.78;;;7.89;78.91
21096;BME280;10706;49.036;12.112;2022-12-29T15:45:43;97354.38;;;7.91;79.16
21096;BME280;10706;49.036;12.112;2022-12-29T15:48:19;97363.19;;;8.03;77.83